Time;durP1;ratioP1;P1;durP2;ratioP2;P2;SDS_P1;SDS_P2;PMS_P1;PMS_P2;Temp;Humidity;BMP_temperature;BMP_pressure;BME280_temperature;BME280_humidity;BME280_pressure;Samples;Min_cycle;Max_cycle;Signal;HPM_P1;HPM_P2
2023/05/12 00:03:19;;;;;;;;;;;;;;;12.5;79.62012;101884.2;;;;-71
2023/05/12 00:08:18;;;;;;;;;;;;;;;12.46;79.46875;101884.6;;;;-70
2023/05/12 00:13:22;;;;;;;;;;;;;;;12.44;79.55469;101888.5;;;;-70
2023/05/12 00:16:51;;;;;;;3.4;1.9;;;;;;;;;;;;;-70
2023/05/12 00:18:18;;;;;;;;;;;;;;;12.43;79.51758;101884.4;;;;-71
2023/05/12 00:23:18;;;;;;;;;;;;;;;12.4;79.71289;101886.8;;;;-73
2023/05/12 00:28:21;;;;;;;;;;;;;;;12.37;79.68555;101883.9;;;;-70
2023/05/12 00:33:19;;;;;;;;;;;;;;;12.35;79.73633;101885.5;;;;-71
2023/05/12 00:38:21;;;;;;;;;;;;;;;12.33;79.88867;101888;;;;-71
2023/05/12 00:43:18;;;;;;;;;;;;;;;12.29;79.7373;101884.3;;;;-70
2023/05/12 00:46:54;;;;;;;3.6;1.9;;;;;;;;;;;;;-69
2023/05/12 00:48:20;;;;;;;;;;;;;;;12.27;79.8457;101881.2;;;;-70
2023/05/12 00:53:20;;;;;;;;;;;;;;;12.27;79.88965;101876.4;;;;-70
2023/05/12 00:58:19;;;;;;;;;;;;;;;12.25;79.80859;101875.3;;;;-69
2023/05/12 01:03:23;;;;;;;;;;;;;;;12.28;79.97852;101871.5;;;;-69
2023/05/12 01:08:19;;;;;;;;;;;;;;;12.26;79.87695;101870;;;;-70
2023/05/12 01:13:22;;;;;;;;;;;;;;;12.27;80.13477;101860.2;;;;-71
2023/05/12 01:16:55;;;;;;;3.2;1.7;;;;;;;;;;;;;-71
2023/05/12 01:18:20;;;;;;;;;;;;;;;12.27;80.13281;101854.8;;;;-70
2023/05/12 01:23:21;;;;;;;;;;;;;;;12.24;80.46289;101854.3;;;;-69
2023/05/12 01:28:20;;;;;;;;;;;;;;;12.22;80.1377;101852.6;;;;-70
2023/05/12 01:33:21;;;;;;;;;;;;;;;12.21;80.36719;101848.3;;;;-71
2023/05/12 01:38:18;;;;;;;;;;;;;;;12.2;80.44336;101844.8;;;;-70
2023/05/12 01:43:18;;;;;;;;;;;;;;;12.17;80.36035;101837.2;;;;-70
2023/05/12 01:46:55;;;;;;;3.1;1.6;;;;;;;;;;;;;-70
2023/05/12 01:48:18;;;;;;;;;;;;;;;12.17;80.36035;101840.1;;;;-70
2023/05/12 01:53:18;;;;;;;;;;;;;;;12.17;80.61621;101843.6;;;;-70
2023/05/12 01:58:19;;;;;;;;;;;;;;;12.17;80.8584;101841.8;;;;-70
2023/05/12 02:03:19;;;;;;;;;;;;;;;12.17;80.69238;101841.3;;;;-70
2023/05/12 02:08:20;;;;;;;;;;;;;;;12.16;81.125;101835.9;;;;-70
2023/05/12 02:13:20;;;;;;;;;;;;;;;12.15;80.88965;101836.9;;;;-70
2023/05/12 02:16:56;;;;;;;4.4;1.6;;;;;;;;;;;;;-70
2023/05/12 02:18:22;;;;;;;;;;;;;;;12.15;81.08984;101833.3;;;;-70
2023/05/12 02:23:18;;;;;;;;;;;;;;;12.14;82.4873;101824.8;;;;-71
2023/05/12 02:28:20;;;;;;;;;;;;;;;12.14;81.46582;101818.2;;;;-71
2023/05/12 02:33:19;;;;;;;;;;;;;;;12.13;82.2832;101819.1;;;;-70
2023/05/12 02:38:18;;;;;;;;;;;;;;;12.11;81.8916;101818.4;;;;-71
2023/05/12 02:43:18;;;;;;;;;;;;;;;12.11;82.03613;101825.8;;;;-71
2023/05/12 02:47:02;;;;;;;2.3;1.4;;;;;;;;;;;;;-71
2023/05/12 02:48:20;;;;;;;;;;;;;;;12.1;82.55566;101824.8;;;;-72
2023/05/12 02:53:20;;;;;;;;;;;;;;;12.1;82.75586;101829.3;;;;-70
2023/05/12 02:58:18;;;;;;;;;;;;;;;12.09;82.30859;101824.9;;;;-71
2023/05/12 03:03:19;;;;;;;;;;;;;;;12.08;82.36426;101818.4;;;;-71
2023/05/12 03:08:19;;;;;;;;;;;;;;;12.08;82.51758;101816.3;;;;-71
2023/05/12 03:13:18;;;;;;;;;;;;;;;12.07;83.12793;101813.2;;;;-71
2023/05/12 03:16:58;;;;;;;3.5;1.7;;;;;;;;;;;;;-70
2023/05/12 03:18:18;;;;;;;;;;;;;;;12.07;82.68359;101818.8;;;;-71
2023/05/12 03:23:19;;;;;;;;;;;;;;;12.05;83.08008;101813;;;;-70
2023/05/12 03:28:18;;;;;;;;;;;;;;;12.06;83.14648;101813.4;;;;-70
2023/05/12 03:33:19;;;;;;;;;;;;;;;12.06;83.82324;101807;;;;-71
2023/05/12 03:38:19;;;;;;;;;;;;;;;12.05;83.30176;101814.7;;;;-72
2023/05/12 03:43:22;;;;;;;;;;;;;;;12.06;83.40137;101813.7;;;;-70
2023/05/12 03:47:00;;;;;;;3.8;1.7;;;;;;;;;;;;;-71
2023/05/12 03:48:18;;;;;;;;;;;;;;;12.06;83.37012;101822;;;;-69
2023/05/12 03:53:18;;;;;;;;;;;;;;;12.08;83.9043;101816.5;;;;-69
2023/05/12 03:58:20;;;;;;;;;;;;;;;12.08;84.43848;101816.2;;;;-72
2023/05/12 04:03:20;;;;;;;;;;;;;;;12.09;84.0293;101823.3;;;;-71
2023/05/12 04:08:19;;;;;;;;;;;;;;;12.09;85.07227;101820.7;;;;-70
2023/05/12 04:13:18;;;;;;;;;;;;;;;12.11;84.43457;101818.1;;;;-70
2023/05/12 04:17:01;;;;;;;9.9;5.3;;;;;;;;;;;;;-70
2023/05/12 04:18:18;;;;;;;;;;;;;;;12.11;84.74512;101818;;;;-71
2023/05/12 04:23:18;;;;;;;;;;;;;;;12.13;84.56934;101814.8;;;;-71
2023/05/12 04:28:20;;;;;;;;;;;;;;;12.13;84.64648;101811.8;;;;-71
2023/05/12 04:33:18;;;;;;;;;;;;;;;12.13;85.22363;101818.5;;;;-69
2023/05/12 04:38:21;;;;;;;;;;;;;;;12.14;85.54883;101822.8;;;;-69
2023/05/12 04:43:18;;;;;;;;;;;;;;;12.15;84.87207;101829.3;;;;-71
2023/05/12 04:47:02;;;;;;;13.8;7.6;;;;;;;;;;;;;-70
2023/05/12 04:48:18;;;;;;;;;;;;;;;12.15;84.69629;101831.2;;;;-70
2023/05/12 04:53:21;;;;;;;;;;;;;;;12.16;85.1416;101833.3;;;;-70
2023/05/12 04:58:18;;;;;;;;;;;;;;;12.18;84.93457;101825.5;;;;-71
2023/05/12 05:03:18;;;;;;;;;;;;;;;12.19;85.69238;101831.9;;;;-70
2023/05/12 05:08:19;;;;;;;;;;;;;;;12.23;85.6416;101837.8;;;;-71
2023/05/12 05:13:21;;;;;;;;;;;;;;;12.22;86.18359;101846.1;;;;-70
2023/05/12 05:17:05;;;;;;;17.4;9.2;;;;;;;;;;;;;-70
2023/05/12 05:18:18;;;;;;;;;;;;;;;12.25;86.71191;101849.6;;;;-70
2023/05/12 05:23:20;;;;;;;;;;;;;;;12.28;86.60645;101854.7;;;;-70
2023/05/12 05:28:18;;;;;;;;;;;;;;;12.28;86.31641;101861.3;;;;-70
2023/05/12 05:33:20;;;;;;;;;;;;;;;12.29;86.49902;101856.3;;;;-70
2023/05/12 05:38:20;;;;;;;;;;;;;;;12.31;85.95508;101870.4;;;;-70
2023/05/12 05:43:18;;;;;;;;;;;;;;;12.32;86.4248;101877.3;;;;-70
2023/05/12 05:47:05;;;;;;;18.3;9.7;;;;;;;;;;;;;-70
2023/05/12 05:48:18;;;;;;;;;;;;;;;12.34;86.19531;101880.7;;;;-69
2023/05/12 05:53:25;;;;;;;;;;;;;;;12.35;86.34375;101879.9;;;;-69
2023/05/12 05:58:18;;;;;;;;;;;;;;;12.37;85.90332;101884.6;;;;-70
2023/05/12 06:03:19;;;;;;;;;;;;;;;12.41;86.35449;101884.6;;;;-70
2023/05/12 06:08:20;;;;;;;;;;;;;;;12.45;86.18359;101889.3;;;;-69
2023/05/12 06:13:19;;;;;;;;;;;;;;;12.51;86.00586;101896.2;;;;-69
2023/05/12 06:17:06;;;;;;;18.5;9.4;;;;;;;;;;;;;-70
2023/05/12 06:18:21;;;;;;;;;;;;;;;12.57;86.6416;101904.5;;;;-69
2023/05/12 06:23:23;;;;;;;;;;;;;;;12.62;86.08496;101915.4;;;;-70
2023/05/12 06:28:18;;;;;;;;;;;;;;;12.67;86.29492;101916.7;;;;-70
2023/05/12 06:33:25;;;;;;;;;;;;;;;12.72;86.42773;101917.3;;;;-70
2023/05/12 06:38:18;;;;;;;;;;;;;;;12.83;87.1582;101915.1;;;;-71
2023/05/12 06:43:23;;;;;;;;;;;;;;;13.02;86.20703;101916.8;;;;-70
2023/05/12 06:47:07;;;;;;;20.2;9.5;;;;;;;;;;;;;-70
2023/05/12 06:48:21;;;;;;;;;;;;;;;13.18;85.68359;101922.5;;;;-69
2023/05/12 06:53:18;;;;;;;;;;;;;;;13.32;86.01074;101924.7;;;;-71
2023/05/12 06:58:20;;;;;;;;;;;;;;;13.43;85.9873;101925.1;;;;-70
2023/05/12 07:03:18;;;;;;;;;;;;;;;13.54;85.69922;101930.3;;;;-70
2023/05/12 07:08:18;;;;;;;;;;;;;;;13.62;85.5459;101929.6;;;;-70
2023/05/12 07:13:20;;;;;;;;;;;;;;;13.7;85.81641;101940;;;;-70
2023/05/12 07:17:08;;;;;;;17.6;9.4;;;;;;;;;;;;;-69
2023/05/12 07:18:18;;;;;;;;;;;;;;;13.79;85.78027;101946.9;;;;-70
2023/05/12 07:23:20;;;;;;;;;;;;;;;13.88;85.69727;101948.5;;;;-69
2023/05/12 07:28:21;;;;;;;;;;;;;;;13.99;85.11719;101942.7;;;;-69
2023/05/12 07:33:21;;;;;;;;;;;;;;;14.09;85.59375;101946.8;;;;-70
2023/05/12 07:38:18;;;;;;;;;;;;;;;14.19;85.14453;101943.4;;;;-69
2023/05/12 07:43:21;;;;;;;;;;;;;;;14.33;84.66016;101940.3;;;;-69
2023/05/12 07:47:13;;;;;;;17.8;8.9;;;;;;;;;;;;;-71
2023/05/12 07:48:18;;;;;;;;;;;;;;;14.52;84.24902;101941.7;;;;-69
2023/05/12 07:53:18;;;;;;;;;;;;;;;14.78;83.65039;101946.9;;;;-69
2023/05/12 07:58:18;;;;;;;;;;;;;;;14.98;83.63281;101948.8;;;;-71
2023/05/12 08:03:19;;;;;;;;;;;;;;;15.17;82.9873;101954.8;;;;-70
2023/05/12 08:08:19;;;;;;;;;;;;;;;15.33;82.61523;101950.6;;;;-71
2023/05/12 08:13:20;;;;;;;;;;;;;;;15.48;82.14063;101951.1;;;;-70
2023/05/12 08:17:11;;;;;;;20.3;9.4;;;;;;;;;;;;;-71
2023/05/12 08:18:21;;;;;;;;;;;;;;;15.64;81.67773;101962;;;;-70
2023/05/12 08:23:18;;;;;;;;;;;;;;;15.78;81.74902;101965.1;;;;-70
2023/05/12 08:28:18;;;;;;;;;;;;;;;15.91;81.25781;101973.8;;;;-70
2023/05/12 08:33:19;;;;;;;;;;;;;;;16.07;80.58008;101980.4;;;;-70
2023/05/12 08:38:18;;;;;;;;;;;;;;;16.33;80.19043;101978.2;;;;-69
2023/05/12 08:43:28;;;;;;;;;;;;;;;16.65;79.57324;101977.6;;;;-71
2023/05/12 08:47:14;;;;;;;17.5;9.6;;;;;;;;;;;;;-69
2023/05/12 08:48:20;;;;;;;;;;;;;;;16.88;78.95313;101981.9;;;;-71
2023/05/12 08:53:19;;;;;;;;;;;;;;;17.17;78.87012;101988.5;;;;-70
2023/05/12 08:58:21;;;;;;;;;;;;;;;17.36;78.21875;101985.9;;;;-70
2023/05/12 09:03:19;;;;;;;;;;;;;;;17.51;78.33398;101991.7;;;;-70
2023/05/12 09:08:18;;;;;;;;;;;;;;;17.69;77.62305;101997.4;;;;-70
2023/05/12 09:13:20;;;;;;;;;;;;;;;17.92;77.06738;101998.8;;;;-71
2023/05/12 09:17:15;;;;;;;17.6;9.3;;;;;;;;;;;;;-71
2023/05/12 09:18:21;;;;;;;;;;;;;;;18.19;76.73145;102002;;;;-70
2023/05/12 09:23:22;;;;;;;;;;;;;;;18.47;76.10254;102001.1;;;;-70
2023/05/12 09:28:21;;;;;;;;;;;;;;;18.8;75.0293;102007.6;;;;-70
2023/05/12 09:33:18;;;;;;;;;;;;;;;19.24;74.85547;102005;;;;-69
2023/05/12 09:38:18;;;;;;;;;;;;;;;19.69;74.40918;102007.4;;;;-71
2023/05/12 09:43:22;;;;;;;;;;;;;;;20.11;73.24609;102020.5;;;;-70
2023/05/12 09:47:17;;;;;;;15.5;8.9;;;;;;;;;;;;;-69
2023/05/12 09:48:20;;;;;;;;;;;;;;;20.47;72.6123;102022.6;;;;-69
2023/05/12 09:53:21;;;;;;;;;;;;;;;20.74;71.7373;102024.7;;;;-69
2023/05/12 09:58:19;;;;;;;;;;;;;;;20.89;71.31738;102024.9;;;;-71
2023/05/12 10:03:21;;;;;;;;;;;;;;;21.17;70.64453;102029.8;;;;-69
2023/05/12 10:08:29;;;;;;;;;;;;;;;21.28;70.68652;102026.7;;;;-70
2023/05/12 10:13:19;;;;;;;;;;;;;;;21.49;70.00195;102028.4;;;;-69
2023/05/12 10:17:21;;;;;;;15.5;8.2;;;;;;;;;;;;;-69
2023/05/12 10:18:21;;;;;;;;;;;;;;;21.62;69.85156;102030.3;;;;-70
2023/05/12 10:23:20;;;;;;;;;;;;;;;21.85;69.60254;102031.3;;;;-71
2023/05/12 10:28:19;;;;;;;;;;;;;;;21.92;69.87598;102024.6;;;;-68
2023/05/12 10:33:18;;;;;;;;;;;;;;;22.04;68.75488;102027;;;;-69
2023/05/12 10:38:20;;;;;;;;;;;;;;;22.12;68.60645;102031.6;;;;-70
2023/05/12 10:43:35;;;;;;;;;;;;;;;22.22;68.66699;102028.9;;;;-70
2023/05/12 10:47:26;;;;;;;11;7.3;;;;;;;;;;;;;-70
2023/05/12 10:48:18;;;;;;;;;;;;;;;22.52;68.8623;102031.2;;;;-71
2023/05/12 10:53:19;;;;;;;;;;;;;;;22.81;67.65137;102029.4;;;;-74
2023/05/12 10:58:19;;;;;;;;;;;;;;;23.06;68.24805;102038.1;;;;-75
2023/05/12 11:03:20;;;;;;;;;;;;;;;23.13;67.67676;102027.8;;;;-75
2023/05/12 11:08:20;;;;;;;;;;;;;;;23.29;68.33984;102032.3;;;;-74
2023/05/12 11:13:19;;;;;;;;;;;;;;;23.47;67.83984;102037.1;;;;-73
2023/05/12 11:17:27;;;;;;;9.7;5.8;;;;;;;;;;;;;-74
2023/05/12 11:18:22;;;;;;;;;;;;;;;23.6;67.27734;102039.7;;;;-74
2023/05/12 11:23:30;;;;;;;;;;;;;;;23.79;65.1416;102041.8;;;;-74
2023/05/12 11:28:18;;;;;;;;;;;;;;;23.77;66.65137;102037.1;;;;-75
2023/05/12 11:33:22;;;;;;;;;;;;;;;23.58;66.8623;102041.2;;;;-69
2023/05/12 11:38:23;;;;;;;;;;;;;;;23.53;67.54395;102040.1;;;;-69
2023/05/12 11:43:25;;;;;;;;;;;;;;;23.69;67.09766;102041.3;;;;-71
2023/05/12 11:47:31;;;;;;;8.1;4.8;;;;;;;;;;;;;-70
2023/05/12 11:48:20;;;;;;;;;;;;;;;23.86;67.58008;102042.1;;;;-69
2023/05/12 11:53:20;;;;;;;;;;;;;;;24.24;68.2793;102034.7;;;;-71
2023/05/12 11:58:25;;;;;;;;;;;;;;;24.74;67.87305;102043;;;;-70
2023/05/12 12:03:21;;;;;;;;;;;;;;;25.19;65.69922;102043.4;;;;-69
2023/05/12 12:08:19;;;;;;;;;;;;;;;25.47;67.14355;102049.9;;;;-70
2023/05/12 12:13:22;;;;;;;;;;;;;;;25.77;65.41699;102049.6;;;;-71
2023/05/12 12:17:34;;;;;;;7.4;3.9;;;;;;;;;;;;;-69
2023/05/12 12:18:21;;;;;;;;;;;;;;;25.99;65.0459;102048.6;;;;-68
2023/05/12 12:23:21;;;;;;;;;;;;;;;26.24;65.59961;102048.8;;;;-68
2023/05/12 12:28:19;;;;;;;;;;;;;;;26.12;65.07715;102059.5;;;;-69
2023/05/12 12:33:18;;;;;;;;;;;;;;;25.68;65.94434;102064.5;;;;-68
2023/05/12 12:38:19;;;;;;;;;;;;;;;25.43;68.44824;102058.7;;;;-68
2023/05/12 12:43:18;;;;;;;;;;;;;;;25.69;65.90039;102059;;;;-67
2023/05/12 12:47:40;;;;;;;4.8;3.1;;;;;;;;;;;;;-68
2023/05/12 12:48:18;;;;;;;;;;;;;;;25.8;65.7334;102058.1;;;;-67
2023/05/12 12:53:19;;;;;;;;;;;;;;;26.22;65.31055;102056;;;;-68
2023/05/12 12:58:18;;;;;;;;;;;;;;;26.69;63.53223;102058.3;;;;-69
2023/05/12 13:03:18;;;;;;;;;;;;;;;26.99;63.35547;102056.2;;;;-68
2023/05/12 13:08:19;;;;;;;;;;;;;;;27.21;62.38086;102052.9;;;;-68
2023/05/12 13:13:18;;;;;;;;;;;;;;;27.24;62.60547;102054.3;;;;-68
2023/05/12 13:17:44;;;;;;;3.8;2.1;;;;;;;;;;;;;-69
2023/05/12 13:18:19;;;;;;;;;;;;;;;27.47;59.75781;102048.9;;;;-69
2023/05/12 13:23:19;;;;;;;;;;;;;;;27.64;60.12598;102046.1;;;;-68
2023/05/12 13:28:19;;;;;;;;;;;;;;;27.62;59.49902;102042.5;;;;-68
2023/05/12 13:33:18;;;;;;;;;;;;;;;27.77;60.27148;102037.2;;;;-67
2023/05/12 13:38:18;;;;;;;;;;;;;;;28.02;60.24609;102037;;;;-68
2023/05/12 13:43:19;;;;;;;;;;;;;;;28;58.06641;102036;;;;-68
2023/05/12 13:47:47;;;;;;;3.6;2.6;;;;;;;;;;;;;-68
2023/05/12 13:48:18;;;;;;;;;;;;;;;28.15;59.03516;102038.1;;;;-68
2023/05/12 13:53:18;;;;;;;;;;;;;;;28.35;57.90234;102036.5;;;;-67
2023/05/12 13:58:18;;;;;;;;;;;;;;;28.51;59.07031;102034.6;;;;-68
2023/05/12 14:03:18;;;;;;;;;;;;;;;28.71;59.46875;102040;;;;-70
2023/05/12 14:08:18;;;;;;;;;;;;;;;28.58;60.25195;102044;;;;-68
2023/05/12 14:13:18;;;;;;;;;;;;;;;28.4;60.38965;102037.9;;;;-70
2023/05/12 14:17:52;;;;;;;5.6;3.4;;;;;;;;;;;;;-67
2023/05/12 14:18:18;;;;;;;;;;;;;;;28.17;59.20117;102039.6;;;;-67
2023/05/12 14:23:18;;;;;;;;;;;;;;;28.04;60.85254;102040.5;;;;-68
2023/05/12 14:28:18;;;;;;;;;;;;;;;27.91;60.18457;102037;;;;-68
2023/05/12 14:33:18;;;;;;;;;;;;;;;27.78;58.69727;102036.8;;;;-69
2023/05/12 14:38:18;;;;;;;;;;;;;;;27.65;59.51563;102037.3;;;;-69
2023/05/12 14:43:22;;;;;;;;;;;;;;;27.37;58.63379;102041.2;;;;-69
2023/05/12 14:47:57;;;;;;;6.4;4.6;;;;;;;;;;;;;-68
2023/05/12 14:48:18;;;;;;;;;;;;;;;27.29;59.26074;102038.9;;;;-69
2023/05/12 14:53:20;;;;;;;;;;;;;;;27.5;60.33984;102047.1;;;;-69
2023/05/12 14:58:22;;;;;;;;;;;;;;;27.58;60.38477;102045.6;;;;-70
2023/05/12 15:03:19;;;;;;;;;;;;;;;27.48;61.05273;102044.2;;;;-68
2023/05/12 15:08:20;;;;;;;;;;;;;;;27.35;60.8623;102043;;;;-68
2023/05/12 15:13:20;;;;;;;;;;;;;;;27.14;61.2627;102046.1;;;;-67
2023/05/12 15:18:01;;;;;;;6.7;3.5;;;;;;;;;;;;;-69
2023/05/12 15:18:18;;;;;;;;;;;;;;;27.43;60.3877;102036.6;;;;-67
2023/05/12 15:23:18;;;;;;;;;;;;;;;27.63;60.49512;102048.3;;;;-68
2023/05/12 15:28:18;;;;;;;;;;;;;;;27.65;59.97852;102044.3;;;;-68
2023/05/12 15:33:21;;;;;;;;;;;;;;;27.73;59.16602;102042;;;;-68
2023/05/12 15:38:18;;;;;;;;;;;;;;;27.76;58.98535;102041.6;;;;-69
2023/05/12 15:43:18;;;;;;;;;;;;;;;27.78;55.88281;102043.2;;;;-68
2023/05/12 15:48:08;;;;;;;3.1;1.8;;;;;;;;;;;;;-68
2023/05/12 15:48:18;;;;;;;;;;;;;;;27.69;55.87207;102041.8;;;;-68
2023/05/12 15:53:18;;;;;;;;;;;;;;;27.66;56.75977;102044.2;;;;-67
2023/05/12 15:58:18;;;;;;;;;;;;;;;27.63;56.25879;102038.7;;;;-69
2023/05/12 16:03:18;;;;;;;;;;;;;;;27.65;55.42676;102045.9;;;;-69
2023/05/12 16:08:19;;;;;;;;;;;;;;;27.64;57.10645;102037;;;;-68
2023/05/12 16:13:18;;;;;;;;;;;;;;;27.65;54.46484;102040;;;;-67
2023/05/12 16:18:10;;;;;;;2.2;1.2;;;;;;;;;;;;;-69
2023/05/12 16:18:20;;;;;;;;;;;;;;;27.59;55.83691;102032.2;;;;-70
2023/05/12 16:23:18;;;;;;;;;;;;;;;27.45;56.71191;102032.2;;;;-69
2023/05/12 16:28:18;;;;;;;;;;;;;;;27.43;56.41895;102041.3;;;;-67
2023/05/12 16:33:18;;;;;;;;;;;;;;;27.23;56.91504;102038.1;;;;-69
2023/05/12 16:38:21;;;;;;;;;;;;;;;26.93;57.09668;102045.1;;;;-69
2023/05/12 16:43:18;;;;;;;;;;;;;;;26.69;57.45996;102052;;;;-70
2023/05/12 16:48:15;;;;;;;0.8;0.5;;;;;;;;;;;;;-68
2023/05/12 16:48:25;;;;;;;;;;;;;;;26.49;58.0332;102059.5;;;;-68
2023/05/12 16:53:18;;;;;;;;;;;;;;;26.25;57.6123;102067.1;;;;-68
2023/05/12 16:58:18;;;;;;;;;;;;;;;25.96;59.28223;102066;;;;-72
2023/05/12 17:03:18;;;;;;;;;;;;;;;25.61;60.60547;102078.2;;;;-74
2023/05/12 17:08:18;;;;;;;;;;;;;;;25.28;61.83887;102086.5;;;;-74
2023/05/12 17:13:20;;;;;;;;;;;;;;;24.99;61.83398;102085.6;;;;-75
2023/05/12 17:18:18;;;;;;;;;;;;;;;24.74;62.61621;102085.7;;;;-74
2023/05/12 17:18:30;;;;;;;0.4;0.2;;;;;;;;;;;;;-74
2023/05/12 17:23:21;;;;;;;;;;;;;;;24.5;62.97363;102091.2;;;;-75
2023/05/12 17:28:19;;;;;;;;;;;;;;;24.28;63.45801;102091.1;;;;-74
2023/05/12 17:33:21;;;;;;;;;;;;;;;24.1;63.89063;102093.3;;;;-74
2023/05/12 17:38:22;;;;;;;;;;;;;;;23.87;63.35449;102095.5;;;;-73
2023/05/12 17:43:20;;;;;;;;;;;;;;;23.62;63.56055;102100.1;;;;-69
2023/05/12 17:48:19;;;;;;;;;;;;;;;23.42;63.76074;102104.4;;;;-71
2023/05/12 17:48:31;;;;;;;0.3;0.2;;;;;;;;;;;;;-71
2023/05/12 17:53:18;;;;;;;;;;;;;;;23.2;63.51074;102105;;;;-70
2023/05/12 17:58:19;;;;;;;;;;;;;;;23.03;63.53418;102105.5;;;;-70
2023/05/12 18:03:22;;;;;;;;;;;;;;;22.86;63.68164;102117.5;;;;-70
2023/05/12 18:08:18;;;;;;;;;;;;;;;22.71;63.64844;102117.1;;;;-69
2023/05/12 18:13:18;;;;;;;;;;;;;;;22.57;63.33105;102124.6;;;;-69
2023/05/12 18:18:18;;;;;;;;;;;;;;;22.42;63.50293;102123.4;;;;-70
2023/05/12 18:18:29;;;;;;;0.2;0.1;;;;;;;;;;;;;-70
2023/05/12 18:23:18;;;;;;;;;;;;;;;22.27;63.54102;102122;;;;-71
2023/05/12 18:28:18;;;;;;;;;;;;;;;22.09;63.37793;102131.4;;;;-70
2023/05/12 18:33:18;;;;;;;;;;;;;;;21.96;63.38184;102137.5;;;;-71
2023/05/12 18:38:18;;;;;;;;;;;;;;;21.8;63.00586;102138.3;;;;-70
2023/05/12 18:43:18;;;;;;;;;;;;;;;21.65;63.52051;102144.7;;;;-71
2023/05/12 18:48:18;;;;;;;;;;;;;;;21.49;63.5332;102143.5;;;;-69
2023/05/12 18:48:34;;;;;;;0.2;0;;;;;;;;;;;;;-70
2023/05/12 18:53:18;;;;;;;;;;;;;;;21.33;63.75977;102150.9;;;;-70
2023/05/12 18:58:19;;;;;;;;;;;;;;;21.16;64.25977;102157.3;;;;-70
2023/05/12 19:03:19;;;;;;;;;;;;;;;20.97;63.95996;102167.6;;;;-70
2023/05/12 19:08:18;;;;;;;;;;;;;;;20.8;64.61816;102173.9;;;;-70
2023/05/12 19:13:19;;;;;;;;;;;;;;;20.61;64.90918;102174.5;;;;-71
2023/05/12 19:18:18;;;;;;;;;;;;;;;20.45;64.81738;102183.6;;;;-69
2023/05/12 19:18:34;;;;;;;0.2;0.1;;;;;;;;;;;;;-70
2023/05/12 19:23:23;;;;;;;;;;;;;;;20.27;64.7793;102190.3;;;;-69
2023/05/12 19:28:21;;;;;;;;;;;;;;;20.08;64.36523;102196.4;;;;-71
2023/05/12 19:33:18;;;;;;;;;;;;;;;19.91;64.86426;102201.4;;;;-71
2023/05/12 19:38:18;;;;;;;;;;;;;;;19.72;64.64453;102206;;;;-69
2023/05/12 19:43:21;;;;;;;;;;;;;;;19.57;65.14453;102212.8;;;;-71
2023/05/12 19:48:18;;;;;;;;;;;;;;;19.41;64.75879;102219.3;;;;-70
2023/05/12 19:48:37;;;;;;;0.2;0;;;;;;;;;;;;;-70
2023/05/12 19:53:20;;;;;;;;;;;;;;;19.24;65.35547;102221.8;;;;-70
2023/05/12 19:58:20;;;;;;;;;;;;;;;19.06;65.47656;102226.4;;;;-70
2023/05/12 20:03:18;;;;;;;;;;;;;;;18.93;65.37793;102234.5;;;;-70
2023/05/12 20:08:18;;;;;;;;;;;;;;;18.78;65.67383;102239.8;;;;-69
2023/05/12 20:13:18;;;;;;;;;;;;;;;18.64;65.88965;102243.9;;;;-69
2023/05/12 20:18:20;;;;;;;;;;;;;;;18.53;65.94238;102246.7;;;;-70
2023/05/12 20:18:43;;;;;;;0.3;0.2;;;;;;;;;;;;;-70
2023/05/12 20:23:20;;;;;;;;;;;;;;;18.38;65.93164;102247.2;;;;-69
2023/05/12 20:28:20;;;;;;;;;;;;;;;18.29;66.08789;102253.1;;;;-69
2023/05/12 20:33:23;;;;;;;;;;;;;;;18.19;66.20898;102256.9;;;;-69
2023/05/12 20:38:20;;;;;;;;;;;;;;;18.08;66.12402;102260.6;;;;-71
2023/05/12 20:43:18;;;;;;;;;;;;;;;18;66.42871;102265.5;;;;-71
2023/05/12 20:48:18;;;;;;;;;;;;;;;17.91;66.65234;102271;;;;-69
2023/05/12 20:48:43;;;;;;;0.2;0;;;;;;;;;;;;;-70
2023/05/12 20:53:19;;;;;;;;;;;;;;;17.83;67.18262;102276.3;;;;-70
2023/05/12 20:58:18;;;;;;;;;;;;;;;17.73;67.16699;102279;;;;-70
2023/05/12 21:03:22;;;;;;;;;;;;;;;17.64;67.3457;102280.6;;;;-70
2023/05/12 21:08:18;;;;;;;;;;;;;;;17.55;67.59277;102279;;;;-70
2023/05/12 21:13:18;;;;;;;;;;;;;;;17.48;67.34473;102280.4;;;;-69
2023/05/12 21:18:19;;;;;;;;;;;;;;;17.4;67.80566;102280.9;;;;-69
2023/05/12 21:18:46;;;;;;;0.2;0.1;;;;;;;;;;;;;-69
2023/05/12 21:23:18;;;;;;;;;;;;;;;17.31;67.96094;102284.7;;;;-70
2023/05/12 21:28:18;;;;;;;;;;;;;;;17.23;67.87109;102289.4;;;;-70
2023/05/12 21:33:18;;;;;;;;;;;;;;;17.16;67.78125;102295.5;;;;-71
2023/05/12 21:38:21;;;;;;;;;;;;;;;17.07;68.24023;102295.5;;;;-72
2023/05/12 21:43:18;;;;;;;;;;;;;;;16.98;68.38574;102297.7;;;;-69
2023/05/12 21:48:18;;;;;;;;;;;;;;;16.9;68.51758;102298.4;;;;-70
2023/05/12 21:48:48;;;;;;;0.4;0.2;;;;;;;;;;;;;-69
2023/05/12 21:53:18;;;;;;;;;;;;;;;16.81;68.56055;102299;;;;-71
2023/05/12 21:58:18;;;;;;;;;;;;;;;16.72;68.57031;102300.9;;;;-70
2023/05/12 22:03:20;;;;;;;;;;;;;;;16.62;68.84766;102303.7;;;;-70
2023/05/12 22:08:20;;;;;;;;;;;;;;;16.53;68.86719;102309.1;;;;-70
2023/05/12 22:13:21;;;;;;;;;;;;;;;16.46;69.05859;102311.7;;;;-70
2023/05/12 22:18:18;;;;;;;;;;;;;;;16.38;69.05664;102315.2;;;;-70
2023/05/12 22:18:51;;;;;;;0.2;0.1;;;;;;;;;;;;;-71
2023/05/12 22:23:18;;;;;;;;;;;;;;;16.27;69.48926;102321.9;;;;-71
2023/05/12 22:28:18;;;;;;;;;;;;;;;16.18;69.4209;102323.6;;;;-70
2023/05/12 22:33:18;;;;;;;;;;;;;;;16.1;69.48438;102326.6;;;;-70
2023/05/12 22:38:18;;;;;;;;;;;;;;;15.99;69.37891;102331.8;;;;-70
2023/05/12 22:43:18;;;;;;;;;;;;;;;15.93;69.75;102333.6;;;;-69
2023/05/12 22:48:18;;;;;;;;;;;;;;;15.84;69.80469;102336;;;;-69
2023/05/12 22:48:53;;;;;;;0.2;0;;;;;;;;;;;;;-71
2023/05/12 22:53:18;;;;;;;;;;;;;;;15.74;70.125;102338.8;;;;-71
2023/05/12 22:58:18;;;;;;;;;;;;;;;15.65;69.81738;102338.6;;;;-69
2023/05/12 23:03:21;;;;;;;;;;;;;;;15.57;69.99707;102338.1;;;;-71
2023/05/12 23:08:18;;;;;;;;;;;;;;;15.47;69.95898;102337.2;;;;-70
2023/05/12 23:13:18;;;;;;;;;;;;;;;15.37;70.06641;102339.3;;;;-70
2023/05/12 23:18:19;;;;;;;;;;;;;;;15.28;70.1543;102344.4;;;;-70
2023/05/12 23:18:57;;;;;;;0.2;0;;;;;;;;;;;;;-71
2023/05/12 23:23:18;;;;;;;;;;;;;;;15.24;70.22559;102342.2;;;;-70
2023/05/12 23:28:18;;;;;;;;;;;;;;;15.1;69.93457;102344.3;;;;-70
2023/05/12 23:33:18;;;;;;;;;;;;;;;14.98;70.28613;102345.3;;;;-70
2023/05/12 23:38:19;;;;;;;;;;;;;;;14.87;70.5918;102345;;;;-69
2023/05/12 23:43:27;;;;;;;;;;;;;;;14.74;70.59375;102339.5;;;;-70
2023/05/12 23:48:18;;;;;;;;;;;;;;;14.63;70.83398;102339.9;;;;-69
2023/05/12 23:48:58;;;;;;;0.3;0.1;;;;;;;;;;;;;-70
2023/05/12 23:53:18;;;;;;;;;;;;;;;14.51;70.97168;102336.6;;;;-70
2023/05/12 23:58:23;;;;;;;;;;;;;;;14.41;70.69824;102334.3;;;;-70
